EDSE weather

Göppingen-Bezgenriet Airport
Baden-Württemberg, Germany

Public forecast

Using degrees Celsius for public forecast. Weather courtesy of forecast.io.

Closest aviation weather report (METAR) to Göppingen-Bezgenriet Airport

Closest report is Stuttgart Airport, 16.1 nm (29.7 km) W. Retrieved 2020/08/06 15:50 UTC (16 minutes ago):

EDDS 061550Z 10007KT 070V140 CAVOK 28/13 Q1020 NOSIG

Closest aviation forecast (TAF) to Göppingen-Bezgenriet Airport

Closest forecast is Stuttgart Airport, 16.1 nm (29.7 km) W. Retrieved 2020/08/06 12:27 UTC (4 hours ago):

TAF TAF EDDS 061100Z 0612/0712 08008KT CAVOK BECMG 0618/0620 VRB02KT BECMG 0707/0709 08006KT